createdAt,value
2023-05-03T00:01:18.931Z,5.25
2023-05-03T00:05:01.460Z,5.07
2023-05-03T00:08:43.628Z,5.28
2023-05-03T00:12:25.872Z,5.60
2023-05-03T00:16:07.801Z,5.93
2023-05-03T00:19:49.982Z,6.53
2023-05-03T00:23:32.396Z,6.85
2023-05-03T00:27:14.597Z,7.07
2023-05-03T00:30:56.711Z,7.30
2023-05-03T00:34:39.131Z,7.05
2023-05-03T00:38:21.058Z,6.22
2023-05-03T00:42:04.188Z,6.65
2023-05-03T00:45:47.682Z,6.10
2023-05-03T00:49:29.492Z,6.18
2023-05-03T00:53:16.201Z,6.10
2023-05-03T00:56:58.285Z,5.97
2023-05-03T01:00:40.844Z,5.82
2023-05-03T01:04:24.254Z,6.20
2023-05-03T01:08:20.358Z,6.22
2023-05-03T01:12:34.380Z,4.78
2023-05-03T01:16:24.797Z,4.75
2023-05-03T01:20:12.727Z,4.72
2023-05-03T01:24:11.475Z,4.53
2023-05-03T01:27:53.398Z,4.78
2023-05-03T01:32:04.231Z,4.68
2023-05-03T01:36:08.516Z,4.35
2023-05-03T01:39:53.012Z,5.05
2023-05-03T01:43:36.273Z,4.53
2023-05-03T01:47:18.077Z,4.10
2023-05-03T01:51:00.275Z,3.80
2023-05-03T01:54:42.212Z,3.63
2023-05-03T01:58:23.965Z,3.58
2023-05-03T02:02:05.732Z,3.45
2023-05-03T02:05:48.462Z,3.65
2023-05-03T02:09:30.243Z,3.78
2023-05-03T02:13:12.070Z,3.47
2023-05-03T02:16:56.861Z,3.35
2023-05-03T02:20:38.792Z,3.28
2023-05-03T02:24:20.516Z,3.38
2023-05-03T02:28:02.334Z,3.60
2023-05-03T02:31:44.452Z,3.75
2023-05-03T02:35:26.343Z,2.90
2023-05-03T02:39:08.066Z,3.20
2023-05-03T02:42:49.860Z,3.60
2023-05-03T02:46:31.811Z,2.83
2023-05-03T02:50:13.854Z,3.17
2023-05-03T02:53:55.693Z,3.10
2023-05-03T02:57:37.496Z,2.90
2023-05-03T03:01:19.450Z,3.00
2023-05-03T03:05:01.500Z,2.83
2023-05-03T03:08:43.295Z,3.15
2023-05-03T03:12:26.284Z,2.65
2023-05-03T03:16:08.628Z,2.92
2023-05-03T03:19:50.691Z,2.90
2023-05-03T03:23:32.605Z,3.00
2023-05-03T03:27:14.418Z,3.05
2023-05-03T03:30:56.160Z,2.90
2023-05-03T03:34:37.952Z,3.05
2023-05-03T03:38:19.756Z,2.90
2023-05-03T03:42:03.046Z,3.10
2023-05-03T03:45:44.928Z,2.75
2023-05-03T03:49:26.822Z,3.00
2023-05-03T03:53:11.034Z,2.97
2023-05-03T03:56:53.420Z,3.03
2023-05-03T04:00:38.453Z,3.03
2023-05-03T04:04:20.304Z,3.15
2023-05-03T04:08:02.098Z,2.85
2023-05-03T04:11:43.869Z,2.75
2023-05-03T04:15:25.697Z,2.80
2023-05-03T04:19:07.700Z,2.83
2023-05-03T04:22:49.442Z,2.72
2023-05-03T04:26:32.390Z,3.03
2023-05-03T04:30:15.457Z,2.85
2023-05-03T04:33:58.027Z,2.75
2023-05-03T04:37:41.920Z,2.47
2023-05-03T04:41:24.438Z,2.40
2023-05-03T04:45:06.848Z,2.60
2023-05-03T04:48:48.660Z,2.67
2023-05-03T04:52:30.575Z,2.88
2023-05-03T04:56:12.337Z,2.85
2023-05-03T04:59:54.140Z,2.53
2023-05-03T05:03:36.052Z,2.85
2023-05-03T05:07:18.020Z,3.20
2023-05-03T05:11:03.906Z,2.70
2023-05-03T05:14:45.632Z,2.35
2023-05-03T05:18:27.487Z,2.53
2023-05-03T05:22:09.419Z,2.33
2023-05-03T05:25:51.335Z,2.50
2023-05-03T05:29:33.084Z,2.83
2023-05-03T05:33:16.656Z,2.40
2023-05-03T05:37:00.582Z,2.58
2023-05-03T05:40:42.299Z,2.70
2023-05-03T05:44:24.003Z,2.40
2023-05-03T05:48:06.490Z,2.60
2023-05-03T05:51:48.261Z,2.83
2023-05-03T05:55:30.035Z,2.65
2023-05-03T05:59:11.765Z,2.40
2023-05-03T06:02:53.488Z,2.78
2023-05-03T06:06:35.478Z,2.60
2023-05-03T06:10:17.365Z,2.80
2023-05-03T06:13:59.233Z,2.83
2023-05-03T06:17:41.630Z,2.92
2023-05-03T06:21:23.854Z,2.83
2023-05-03T06:25:08.113Z,2.90
2023-05-03T06:28:50.518Z,2.60
2023-05-03T06:32:32.344Z,2.50
2023-05-03T06:36:14.553Z,2.85
2023-05-03T06:39:56.345Z,2.47
2023-05-03T06:43:38.160Z,2.35
2023-05-03T06:47:21.458Z,2.40
2023-05-03T06:51:03.310Z,2.20
2023-05-03T06:54:45.107Z,2.70
2023-05-03T06:58:26.882Z,2.63
2023-05-03T07:02:08.774Z,2.47
2023-05-03T07:05:50.618Z,2.35
2023-05-03T07:09:42.639Z,2.08
2023-05-03T07:13:25.840Z,2.10
2023-05-03T07:17:08.064Z,2.20
2023-05-03T07:20:49.898Z,2.17
2023-05-03T07:24:31.619Z,2.38
2023-05-03T07:28:13.345Z,2.13
2023-05-03T07:31:55.262Z,2.70
2023-05-03T07:35:36.973Z,2.30
2023-05-03T07:39:19.227Z,2.33
2023-05-03T07:43:01.066Z,2.00
2023-05-03T07:46:42.783Z,2.05
2023-05-03T07:50:24.872Z,2.13
2023-05-03T07:54:06.945Z,2.35
2023-05-03T07:57:48.803Z,2.35
2023-05-03T08:01:30.696Z,2.20
2023-05-03T08:05:14.735Z,2.10
2023-05-03T08:08:56.875Z,2.10
2023-05-03T08:12:39.014Z,2.03
2023-05-03T08:16:21.638Z,2.05
2023-05-03T08:20:05.020Z,2.13
2023-05-03T08:23:47.026Z,2.38
2023-05-03T08:27:28.782Z,1.92
2023-05-03T08:31:10.674Z,1.95
2023-05-03T08:34:53.181Z,2.20
2023-05-03T08:38:35.074Z,2.15
2023-05-03T08:42:17.305Z,2.60
2023-05-03T08:45:59.262Z,2.08
2023-05-03T08:49:42.205Z,2.33
2023-05-03T08:53:24.055Z,1.88
2023-05-03T08:57:12.754Z,2.00
2023-05-03T09:00:54.526Z,3.10
2023-05-03T09:04:36.390Z,2.63
2023-05-03T09:08:23.003Z,2.70
2023-05-03T09:12:06.011Z,2.50
2023-05-03T09:15:57.721Z,2.30
2023-05-03T09:19:53.780Z,2.63
2023-05-03T09:23:36.035Z,2.40
2023-05-03T09:27:21.678Z,2.50
2023-05-03T09:31:07.633Z,2.60
2023-05-03T09:34:49.615Z,3.38
2023-05-03T09:38:33.753Z,2.45
2023-05-03T09:42:17.557Z,2.35
2023-05-03T09:46:13.048Z,2.58
2023-05-03T09:49:55.434Z,3.63
2023-05-03T09:53:38.613Z,2.55
2023-05-03T09:57:20.770Z,2.70
2023-05-03T10:01:02.777Z,2.50
2023-05-03T10:04:51.239Z,2.72
2023-05-03T10:08:45.774Z,2.53
2023-05-03T10:12:28.424Z,2.60
2023-05-03T10:16:17.308Z,2.60
2023-05-03T10:20:28.256Z,3.10
2023-05-03T10:24:10.089Z,2.28
2023-05-03T10:27:52.727Z,2.15
2023-05-03T10:31:45.892Z,2.08
2023-05-03T10:35:29.349Z,2.30
2023-05-03T10:39:14.814Z,2.13
2023-05-03T10:42:56.670Z,2.38
2023-05-03T10:46:39.059Z,2.00
2023-05-03T10:50:27.091Z,2.53
2023-05-03T10:57:58.736Z,2.60
2023-05-03T11:01:44.525Z,4.05
2023-05-03T11:05:28.115Z,2.60
2023-05-03T11:09:12.243Z,2.58
2023-05-03T11:12:54.013Z,2.60
2023-05-03T11:16:37.022Z,2.70
2023-05-03T11:20:19.615Z,2.88
2023-05-03T11:24:02.043Z,2.40
2023-05-03T11:27:45.651Z,2.65
2023-05-03T11:31:29.159Z,2.75
2023-05-03T11:35:15.478Z,2.30
2023-05-03T11:38:57.210Z,2.60
2023-05-03T11:42:58.749Z,2.38
2023-05-03T11:46:40.692Z,2.55
2023-05-03T11:50:48.065Z,3.53
2023-05-03T11:54:30.983Z,2.13
2023-05-03T11:58:17.795Z,2.50
2023-05-03T12:02:03.975Z,2.10
2023-05-03T12:05:47.138Z,2.40
2023-05-03T12:09:29.803Z,2.05
2023-05-03T12:13:13.164Z,2.83
2023-05-03T12:16:56.956Z,2.90
2023-05-03T12:24:28.656Z,2.50
2023-05-03T12:31:55.466Z,2.65
2023-05-03T12:35:40.191Z,2.20
2023-05-03T12:39:24.012Z,2.30
2023-05-03T12:43:09.090Z,5.45
2023-05-03T12:46:52.919Z,2.10
2023-05-03T12:50:38.569Z,2.83
2023-05-03T12:54:21.115Z,2.95
2023-05-03T13:05:36.228Z,3.50
2023-05-03T13:09:21.667Z,2.53
2023-05-03T13:13:04.105Z,2.95
2023-05-03T13:16:46.056Z,2.25
2023-05-03T13:20:29.028Z,2.80
2023-05-03T13:24:10.823Z,2.97
2023-05-03T13:27:53.264Z,2.70
2023-05-03T13:31:35.384Z,3.42
2023-05-03T13:35:18.243Z,2.83
2023-05-03T13:39:01.939Z,2.83
2023-05-03T13:42:43.698Z,2.78
2023-05-03T13:46:25.517Z,3.08
2023-05-03T13:50:07.989Z,3.25
2023-05-03T13:53:49.980Z,3.10
2023-05-03T13:57:31.721Z,2.67
2023-05-03T14:01:13.886Z,2.97
2023-05-03T14:04:55.886Z,3.20
2023-05-03T14:08:37.727Z,3.53
2023-05-03T14:12:19.583Z,2.90
2023-05-03T14:16:01.347Z,3.25
2023-05-03T14:19:43.058Z,2.90
2023-05-03T14:23:25.397Z,3.00
2023-05-03T14:27:07.572Z,2.95
2023-05-03T14:30:49.460Z,2.67
2023-05-03T14:34:31.456Z,3.10
2023-05-03T14:38:14.448Z,3.08
2023-05-03T14:41:56.636Z,3.00
2023-05-03T14:45:38.403Z,3.20
2023-05-03T14:49:20.416Z,3.20
2023-05-03T14:53:02.226Z,3.17
2023-05-03T14:56:43.929Z,2.85
2023-05-03T15:00:25.830Z,3.28
2023-05-03T15:04:08.007Z,2.92
2023-05-03T15:07:49.855Z,3.28
2023-05-03T15:11:31.564Z,2.75
2023-05-03T15:15:13.797Z,3.83
2023-05-03T15:18:55.772Z,3.28
2023-05-03T15:22:37.536Z,3.20
2023-05-03T15:26:19.244Z,3.63
2023-05-03T15:30:00.986Z,3.40
2023-05-03T15:33:44.608Z,3.42
2023-05-03T15:37:37.876Z,3.95
2023-05-03T15:41:19.600Z,3.35
2023-05-03T15:45:01.439Z,3.70
2023-05-03T15:48:43.143Z,3.63
2023-05-03T15:52:24.930Z,3.40
2023-05-03T15:56:07.393Z,4.03
2023-05-03T15:59:49.621Z,3.80
2023-05-03T16:03:31.575Z,3.40
2023-05-03T16:07:13.352Z,4.22
2023-05-03T16:10:55.073Z,4.22
2023-05-03T16:14:36.831Z,4.30
2023-05-03T16:18:18.942Z,3.72
2023-05-03T16:22:01.082Z,4.05
2023-05-03T16:25:42.812Z,3.80
2023-05-03T16:29:24.601Z,4.28
2023-05-03T16:33:06.505Z,4.07
2023-05-03T16:36:48.244Z,4.50
2023-05-03T16:40:32.123Z,4.25
2023-05-03T16:44:16.058Z,4.25
2023-05-03T16:47:57.918Z,4.10
2023-05-03T16:51:40.914Z,3.85
2023-05-03T16:55:22.924Z,4.35
2023-05-03T16:59:05.094Z,3.67
2023-05-03T17:02:47.044Z,4.20
2023-05-03T17:06:29.187Z,3.97
2023-05-03T17:10:11.217Z,3.75
2023-05-03T17:13:53.166Z,4.28
2023-05-03T17:17:34.924Z,4.22
2023-05-03T17:21:16.748Z,4.10
2023-05-03T17:24:58.903Z,4.28
2023-05-03T17:28:41.532Z,4.38
2023-05-03T17:32:23.582Z,4.32
2023-05-03T17:36:05.715Z,4.55
2023-05-03T17:39:47.508Z,4.80
2023-05-03T17:43:29.227Z,4.80
2023-05-03T17:47:11.176Z,5.13
2023-05-03T17:50:59.022Z,4.30
2023-05-03T17:58:22.490Z,5.03
2023-05-03T18:02:04.411Z,4.80
2023-05-03T18:05:46.450Z,4.93
2023-05-03T18:09:28.208Z,4.97
2023-05-03T18:13:12.507Z,4.70
2023-05-03T18:16:55.210Z,4.88
2023-05-03T18:20:37.116Z,5.75
2023-05-03T18:24:18.869Z,4.90
2023-05-03T18:28:01.794Z,5.30
2023-05-03T18:31:43.566Z,5.22
2023-05-03T18:35:25.283Z,5.88
2023-05-03T18:39:08.684Z,5.13
2023-05-03T18:42:50.412Z,4.60
2023-05-03T18:46:32.293Z,4.90
2023-05-03T18:50:14.100Z,4.93
2023-05-03T18:53:55.849Z,6.72
2023-05-03T18:57:38.150Z,4.90
2023-05-03T19:01:19.954Z,5.13
2023-05-03T19:05:02.210Z,5.15
2023-05-03T19:08:44.503Z,5.13
2023-05-03T19:12:26.857Z,4.95
2023-05-03T19:16:08.657Z,5.30
2023-05-03T19:19:50.682Z,5.47
2023-05-03T19:23:32.803Z,4.85
2023-05-03T19:27:14.662Z,4.63
2023-05-03T19:30:56.671Z,4.68
2023-05-03T19:34:38.537Z,4.95
2023-05-03T19:38:20.430Z,5.22
2023-05-03T19:42:02.409Z,5.20
2023-05-03T19:45:44.197Z,5.03
2023-05-03T19:49:26.035Z,4.72
2023-05-03T19:53:07.864Z,4.38
2023-05-03T19:56:50.260Z,4.40
2023-05-03T20:00:32.066Z,4.50
2023-05-03T20:04:13.981Z,4.30
2023-05-03T20:07:56.023Z,4.10
2023-05-03T20:11:37.751Z,3.35
2023-05-03T20:15:19.596Z,3.65
2023-05-03T20:19:01.364Z,3.60
2023-05-03T20:22:43.114Z,3.00
2023-05-03T20:26:25.716Z,3.20
2023-05-03T20:30:08.638Z,3.13
2023-05-03T20:33:50.729Z,2.55
2023-05-03T20:37:33.206Z,3.42
2023-05-03T20:41:14.940Z,3.38
2023-05-03T20:44:57.096Z,3.17
2023-05-03T20:48:39.388Z,2.85
2023-05-03T20:52:21.102Z,2.80
2023-05-03T20:56:06.320Z,3.10
2023-05-03T20:59:48.103Z,3.42
2023-05-03T21:03:30.458Z,3.13
2023-05-03T21:07:12.312Z,3.15
2023-05-03T21:10:54.475Z,3.20
2023-05-03T21:14:36.245Z,3.25
2023-05-03T21:18:19.163Z,3.80
2023-05-03T21:22:01.396Z,3.83
2023-05-03T21:25:43.374Z,3.80
2023-05-03T21:29:25.076Z,4.10
2023-05-03T21:33:06.896Z,4.30
2023-05-03T21:36:48.821Z,5.45
2023-05-03T21:40:30.552Z,5.13
2023-05-03T21:44:12.355Z,4.90
2023-05-03T21:47:54.205Z,6.10
2023-05-03T21:51:36.014Z,6.47
2023-05-03T21:55:18.266Z,6.47
2023-05-03T21:59:00.175Z,7.22
2023-05-03T22:02:42.247Z,7.38
2023-05-03T22:06:24.095Z,8.43
2023-05-03T22:10:07.155Z,8.40
2023-05-03T22:14:06.162Z,9.60
2023-05-03T22:17:50.125Z,9.70
2023-05-03T22:21:32.581Z,10.20
2023-05-03T22:25:24.643Z,9.55
2023-05-03T22:29:06.387Z,10.38
2023-05-03T22:32:49.424Z,10.75
2023-05-03T22:36:31.311Z,11.40
2023-05-03T22:40:13.531Z,11.32
2023-05-03T22:43:55.376Z,11.18
2023-05-03T22:47:37.400Z,11.27
2023-05-03T22:51:19.385Z,12.13
2023-05-03T22:55:02.151Z,10.57
2023-05-03T22:58:44.006Z,11.45
2023-05-03T23:02:26.069Z,11.13
2023-05-03T23:06:07.964Z,10.50
2023-05-03T23:09:49.690Z,10.98
2023-05-03T23:13:31.402Z,10.52
2023-05-03T23:17:13.657Z,10.00
2023-05-03T23:20:55.701Z,10.00
2023-05-03T23:24:37.576Z,10.45
2023-05-03T23:28:19.439Z,9.65
2023-05-03T23:32:01.780Z,10.27
2023-05-03T23:35:44.211Z,9.65
2023-05-03T23:39:26.113Z,9.68
2023-05-03T23:43:07.970Z,9.93
2023-05-03T23:46:49.865Z,9.25
2023-05-03T23:50:32.040Z,9.10
2023-05-03T23:54:13.778Z,10.27
2023-05-03T23:57:55.972Z,10.18
